createdAt,value
2023-03-05T12:07:58.409Z,13.00
2023-03-05T12:10:26.975Z,13.40
2023-03-05T12:13:04.003Z,12.70
2023-03-05T12:15:31.097Z,12.10
2023-03-05T12:17:58.163Z,12.70
2023-03-05T12:20:36.140Z,13.50
2023-03-05T12:23:03.182Z,14.40
2023-03-05T12:25:48.698Z,15.10
2023-03-05T12:28:37.399Z,15.20
2023-03-05T12:31:25.694Z,14.70
2023-03-05T12:33:53.001Z,14.00
2023-03-05T12:36:22.960Z,13.30
2023-03-05T12:38:54.076Z,12.90
2023-03-05T12:41:25.409Z,12.40
2023-03-05T12:44:13.165Z,12.20
2023-03-05T12:46:44.713Z,11.80
2023-03-05T12:49:23.006Z,11.60
2023-03-05T12:51:55.665Z,11.40
2023-03-05T12:54:39.773Z,11.20
2023-03-05T12:57:20.118Z,10.90
2023-03-05T12:59:53.612Z,10.70
2023-03-05T13:02:31.684Z,10.80
2023-03-05T13:05:05.742Z,11.70
2023-03-05T13:07:32.611Z,11.50
2023-03-05T13:10:00.441Z,11.00
2023-03-05T13:12:30.499Z,11.30
2023-03-05T13:15:05.830Z,11.30
2023-03-05T13:17:40.705Z,11.70
2023-03-05T13:20:26.092Z,11.40
2023-03-05T13:23:11.267Z,10.90
2023-03-05T13:25:38.210Z,10.60
2023-03-05T13:28:11.234Z,11.50
2023-03-05T13:30:38.436Z,12.10
2023-03-05T13:33:06.116Z,11.70
2023-03-05T13:35:34.261Z,11.10
2023-03-05T13:38:02.210Z,10.40
2023-03-05T13:40:31.394Z,10.10
2023-03-05T13:43:20.812Z,10.40
2023-03-05T13:45:56.242Z,10.90
2023-03-05T13:48:23.356Z,10.50
2023-03-05T13:50:58.414Z,10.20
2023-03-05T13:53:30.792Z,10.10
2023-03-05T13:56:00.828Z,10.10
2023-03-05T13:58:54.227Z,10.20
2023-03-05T14:01:44.065Z,10.90
2023-03-05T14:04:14.266Z,11.70
2023-03-05T14:06:50.834Z,11.50
2023-03-05T14:09:24.117Z,11.90
2023-03-05T14:12:01.786Z,12.90
2023-03-05T14:14:30.963Z,13.40
2023-03-05T14:17:21.794Z,13.60
2023-03-05T14:19:49.587Z,13.50
2023-03-05T14:22:37.503Z,13.60
2023-03-05T14:25:07.143Z,13.50
2023-03-05T14:27:36.499Z,13.30
2023-03-05T14:30:06.316Z,13.20
2023-03-05T14:32:37.725Z,12.80
2023-03-05T14:35:06.655Z,12.00
2023-03-05T14:37:41.508Z,11.10
2023-03-05T14:40:14.523Z,10.30
2023-03-05T14:42:41.604Z,9.50
2023-03-05T14:45:16.005Z,9.30
2023-03-05T14:47:43.488Z,9.10
2023-03-05T14:50:42.446Z,9.10
2023-03-05T14:53:24.960Z,9.80
2023-03-05T14:55:56.678Z,10.50
2023-03-05T14:58:26.423Z,10.80
2023-03-05T15:00:54.567Z,10.50
2023-03-05T15:03:23.024Z,9.90
2023-03-05T15:05:52.687Z,10.00
2023-03-05T15:08:25.969Z,10.30
2023-03-05T15:10:54.268Z,10.40
2023-03-05T15:13:21.941Z,10.20
2023-03-05T15:15:52.103Z,9.70
2023-03-05T15:18:23.870Z,9.30
2023-03-05T15:20:53.105Z,9.10
2023-03-05T15:23:20.493Z,9.00
2023-03-05T15:25:47.606Z,8.80
2023-03-05T15:28:14.937Z,8.70
2023-03-05T15:30:46.567Z,8.80
2023-03-05T15:33:16.865Z,8.90
2023-03-05T15:35:44.182Z,9.00
2023-03-05T15:38:11.400Z,8.90
2023-03-05T15:40:38.473Z,8.70
2023-03-05T15:43:05.658Z,8.40
2023-03-05T15:45:32.664Z,8.00
2023-03-05T15:47:59.754Z,7.60
2023-03-05T15:50:27.211Z,7.00
2023-03-05T15:52:54.288Z,6.90
2023-03-05T15:55:21.738Z,6.80
2023-03-05T15:57:50.908Z,6.90
2023-03-05T16:00:25.539Z,6.90
2023-03-05T16:02:53.028Z,7.00
2023-03-05T16:05:20.196Z,7.20
2023-03-05T16:07:51.323Z,7.20
2023-03-05T16:10:23.138Z,7.10
2023-03-05T16:12:57.065Z,7.10
2023-03-05T16:15:24.850Z,7.10
2023-03-05T16:17:55.394Z,7.00
2023-03-05T16:20:23.279Z,7.00
2023-03-05T16:22:50.519Z,6.90
2023-03-05T16:25:18.031Z,6.90
2023-03-05T16:27:45.797Z,6.90
2023-03-05T16:30:15.488Z,6.90
2023-03-05T16:32:43.020Z,6.90
2023-03-05T16:35:12.461Z,6.80
2023-03-05T16:37:40.720Z,6.70
2023-03-05T16:40:10.187Z,6.70
2023-03-05T16:42:37.369Z,6.60
2023-03-05T16:45:05.613Z,6.50
2023-03-05T16:47:32.738Z,6.50
2023-03-05T16:50:00.960Z,6.40
2023-03-05T16:52:28.703Z,6.40
2023-03-05T16:54:55.789Z,6.30
2023-03-05T16:57:25.430Z,6.30
2023-03-05T16:59:54.216Z,6.20
2023-03-05T17:02:21.306Z,6.10
2023-03-05T17:04:49.591Z,6.10
2023-03-05T17:07:18.062Z,6.10
2023-03-05T17:09:45.842Z,6.00
2023-03-05T17:12:12.847Z,5.90
2023-03-05T17:14:40.061Z,5.90
2023-03-05T17:17:07.244Z,5.90
2023-03-05T17:19:34.440Z,5.80
2023-03-05T17:22:01.567Z,5.70
2023-03-05T17:24:28.873Z,5.70
2023-03-05T17:26:56.763Z,5.70
2023-03-05T17:29:24.006Z,5.70
2023-03-05T17:31:53.542Z,5.60
2023-03-05T17:34:33.245Z,5.60
2023-03-05T17:37:01.409Z,5.60
2023-03-05T17:39:28.595Z,5.50
2023-03-05T17:41:55.587Z,5.50
2023-03-05T17:44:22.727Z,5.50
2023-03-05T17:46:49.997Z,5.40
2023-03-05T17:49:16.998Z,5.40
2023-03-05T17:51:43.987Z,5.30
2023-03-05T17:54:11.239Z,5.40
2023-03-05T17:56:38.418Z,5.40
2023-03-05T17:59:05.426Z,5.40
2023-03-05T18:01:34.657Z,5.40
2023-03-05T18:04:02.020Z,5.30
2023-03-05T18:06:29.422Z,5.30
2023-03-05T18:08:56.422Z,5.20
2023-03-05T18:11:24.009Z,5.20
2023-03-05T18:13:51.142Z,5.20
2023-03-05T18:16:18.455Z,5.10
2023-03-05T18:18:46.553Z,5.10
2023-03-05T18:21:17.843Z,5.00
2023-03-05T18:23:44.784Z,5.00
2023-03-05T18:26:11.982Z,5.00
2023-03-05T18:28:38.940Z,5.00
2023-03-05T18:31:06.192Z,5.00
2023-03-05T18:33:33.240Z,5.00
2023-03-05T18:36:00.265Z,5.00
2023-03-05T18:38:29.710Z,5.00
2023-03-05T18:40:57.975Z,5.00
2023-03-05T18:43:25.294Z,5.10
2023-03-05T18:45:54.858Z,5.00
2023-03-05T18:48:23.067Z,5.00
2023-03-05T18:50:54.206Z,5.00
2023-03-05T18:53:22.384Z,4.90
2023-03-05T18:55:51.662Z,4.90
2023-03-05T18:58:23.020Z,4.80
2023-03-05T19:00:50.319Z,4.80
2023-03-05T19:03:19.791Z,4.70
2023-03-05T19:05:47.803Z,4.70
2023-03-05T19:08:15.016Z,4.60
2023-03-05T19:10:42.276Z,4.60
2023-03-05T19:13:41.088Z,4.60
2023-03-05T19:16:15.064Z,4.50
2023-03-05T19:19:23.665Z,4.50
2023-03-05T19:21:56.896Z,4.50
2023-03-05T19:24:25.418Z,4.50
2023-03-05T19:26:55.445Z,4.50
2023-03-05T19:29:28.030Z,4.50
2023-03-05T19:31:55.029Z,4.50
2023-03-05T19:34:22.172Z,4.50
2023-03-05T19:36:49.286Z,4.50
2023-03-05T19:39:16.454Z,4.50
2023-03-05T19:41:43.590Z,4.50
2023-03-05T19:44:10.565Z,4.50
2023-03-05T19:46:38.007Z,4.50
2023-03-05T19:49:05.086Z,4.50
2023-03-05T19:51:32.223Z,4.50
2023-03-05T19:53:59.382Z,4.50
2023-03-05T19:56:26.408Z,4.50
2023-03-05T19:58:53.580Z,4.50
2023-03-05T20:01:22.541Z,4.50
2023-03-05T20:03:52.147Z,4.50
2023-03-05T20:06:20.496Z,4.50
2023-03-05T20:08:48.530Z,4.50
2023-03-05T20:11:17.394Z,4.50
2023-03-05T20:13:45.376Z,4.50
2023-03-05T20:16:21.689Z,4.50
2023-03-05T20:18:53.079Z,4.50
2023-03-05T20:21:23.347Z,4.50
2023-03-05T20:23:54.597Z,4.50
2023-03-05T20:26:22.632Z,4.50
2023-03-05T20:28:50.037Z,4.50
2023-03-05T20:31:23.158Z,4.50
2023-03-05T20:33:50.875Z,4.50
2023-03-05T20:36:18.129Z,4.50
2023-03-05T20:38:45.877Z,4.50
2023-03-05T20:41:16.658Z,4.50
2023-03-05T20:43:46.409Z,4.50
2023-03-05T20:46:28.689Z,4.50
2023-03-05T20:48:59.098Z,4.60
2023-03-05T20:51:32.908Z,4.60
2023-03-05T20:54:04.111Z,4.60
2023-03-05T20:56:32.773Z,4.60
2023-03-05T20:59:04.763Z,4.60
2023-03-05T21:01:33.698Z,4.60
2023-03-05T21:04:01.433Z,4.60
2023-03-05T21:06:29.737Z,4.60
2023-03-05T21:08:57.505Z,4.60
2023-03-05T21:11:24.863Z,4.60
2023-03-05T21:13:52.017Z,4.60
2023-03-05T21:16:22.671Z,4.50
2023-03-05T21:18:51.186Z,4.50
2023-03-05T21:21:19.037Z,4.50
2023-03-05T21:23:47.322Z,4.50
2023-03-05T21:26:15.416Z,4.60
2023-03-05T21:28:59.046Z,4.50
2023-03-05T21:31:26.530Z,4.50
2023-03-05T21:33:53.553Z,4.50
2023-03-05T21:36:20.579Z,4.50
2023-03-05T21:38:48.799Z,4.50
2023-03-05T21:41:18.190Z,4.50
2023-03-05T21:43:45.577Z,4.60
2023-03-05T21:46:12.936Z,4.60
2023-03-05T21:48:40.239Z,4.60
2023-03-05T21:52:12.283Z,4.50
2023-03-05T21:54:39.946Z,4.60
2023-03-05T21:57:09.765Z,4.50
2023-03-05T21:59:40.086Z,4.60
2023-03-05T22:02:18.040Z,4.60
2023-03-05T22:04:46.162Z,4.50
2023-03-05T22:07:13.868Z,4.60
2023-03-05T22:09:41.143Z,4.60
2023-03-05T22:13:04.490Z,4.60
2023-03-05T22:15:31.672Z,4.60
2023-03-05T22:17:58.746Z,4.60
2023-03-05T22:20:26.311Z,4.60
2023-03-05T22:22:53.384Z,4.60
2023-03-05T22:25:20.518Z,4.60
2023-03-05T22:27:47.474Z,4.60
2023-03-05T22:46:37.494Z,4.60
2023-03-05T22:49:04.602Z,4.60
2023-03-05T22:51:31.649Z,4.70
2023-03-05T22:53:59.429Z,4.70
2023-03-05T22:56:26.888Z,4.70
2023-03-05T22:58:54.229Z,4.70
2023-03-05T23:07:46.884Z,4.80
2023-03-05T23:10:16.891Z,4.80
2023-03-05T23:12:49.428Z,4.80
2023-03-05T23:15:19.775Z,4.80
2023-03-05T23:17:47.242Z,4.80
2023-03-05T23:20:17.060Z,4.80
2023-03-05T23:22:45.436Z,4.80
2023-03-05T23:25:13.922Z,4.80
2023-03-05T23:27:41.808Z,4.80
2023-03-05T23:30:34.695Z,4.80
2023-03-05T23:33:09.546Z,4.80
2023-03-05T23:35:39.497Z,4.80
2023-03-05T23:38:11.873Z,4.80
2023-03-05T23:40:48.051Z,4.80
2023-03-05T23:43:16.806Z,4.80
2023-03-05T23:45:45.875Z,4.70
2023-03-05T23:48:13.024Z,4.70
2023-03-05T23:50:43.048Z,4.60
2023-03-05T23:53:19.978Z,4.50
2023-03-05T23:55:48.016Z,4.40
2023-03-05T23:58:16.054Z,4.40
